createdAt,value
2023-02-21T00:00:26.393Z,7.99
2023-02-21T00:05:46.696Z,8.01
2023-02-21T00:11:07.006Z,7.98
2023-02-21T00:16:27.278Z,7.96
2023-02-21T00:21:48.639Z,7.94
2023-02-21T00:27:08.940Z,7.92
2023-02-21T00:32:29.314Z,7.94
2023-02-21T00:37:49.601Z,7.90
2023-02-21T00:43:09.809Z,7.89
2023-02-21T00:48:30.125Z,7.84
2023-02-21T00:53:51.361Z,7.85
2023-02-21T00:59:11.754Z,7.86
2023-02-21T01:04:32.041Z,7.87
2023-02-21T01:09:52.174Z,7.88
2023-02-21T01:15:13.507Z,7.87
2023-02-21T01:20:34.587Z,7.92
2023-02-21T01:25:54.496Z,7.93
2023-02-21T01:31:14.943Z,7.95
2023-02-21T01:36:35.367Z,7.99
2023-02-21T01:41:55.637Z,8.00
2023-02-21T01:47:17.197Z,7.96
2023-02-21T01:52:37.597Z,7.94
2023-02-21T01:57:59.129Z,7.92
2023-02-21T02:03:22.926Z,7.93
2023-02-21T02:08:47.213Z,7.93
2023-02-21T02:14:05.300Z,7.97
2023-02-21T02:19:10.117Z,7.99
2023-02-21T02:24:22.757Z,8.03
2023-02-21T02:29:55.252Z,8.07
2023-02-21T02:35:18.822Z,8.10
2023-02-21T02:40:41.041Z,8.12
2023-02-21T02:45:55.612Z,8.12
2023-02-21T02:50:59.143Z,8.14
2023-02-21T02:56:04.623Z,8.21
2023-02-21T03:01:11.914Z,8.25
2023-02-21T03:06:25.445Z,8.25
2023-02-21T03:11:28.207Z,8.26
2023-02-21T03:16:55.401Z,8.25
2023-02-21T03:22:01.836Z,8.24
2023-02-21T03:27:06.923Z,8.23
2023-02-21T03:33:02.304Z,8.18
2023-02-21T03:38:04.422Z,8.19
2023-02-21T03:43:09.475Z,8.22
2023-02-21T03:48:30.943Z,8.24
2023-02-21T03:53:38.060Z,8.28
2023-02-21T03:58:41.195Z,8.31
2023-02-21T04:03:42.813Z,8.33
2023-02-21T04:08:44.490Z,8.34
2023-02-21T04:13:46.327Z,8.36
2023-02-21T04:18:48.089Z,8.36
2023-02-21T04:23:51.578Z,8.37
2023-02-21T04:28:53.702Z,8.40
2023-02-21T04:34:10.581Z,8.38
2023-02-21T04:39:14.414Z,8.39
2023-02-21T04:44:18.200Z,8.38
2023-02-21T04:49:19.971Z,8.37
2023-02-21T04:54:21.599Z,8.36
2023-02-21T04:59:23.219Z,8.34
2023-02-21T05:04:24.853Z,8.34
2023-02-21T05:09:26.521Z,8.36
2023-02-21T05:14:28.193Z,8.37
2023-02-21T05:19:29.852Z,8.35
2023-02-21T05:24:31.516Z,8.34
2023-02-21T05:29:33.114Z,8.36
2023-02-21T05:34:34.794Z,8.35
2023-02-21T05:39:36.552Z,8.31
2023-02-21T05:44:38.247Z,8.27
2023-02-21T05:49:41.118Z,8.22
2023-02-21T05:54:43.253Z,8.17
2023-02-21T05:59:44.982Z,8.19
2023-02-21T06:04:46.687Z,8.17
2023-02-21T06:09:48.327Z,8.16
2023-02-21T06:14:49.970Z,8.17
2023-02-21T06:19:51.634Z,8.23
2023-02-21T06:24:53.325Z,8.31
2023-02-21T06:29:54.947Z,8.37
2023-02-21T06:34:56.714Z,8.41
2023-02-21T06:39:58.313Z,8.46
2023-02-21T06:45:00.042Z,8.52
2023-02-21T06:50:01.680Z,8.58
2023-02-21T06:55:03.528Z,8.63
2023-02-21T07:00:06.444Z,8.59
2023-02-21T07:05:08.855Z,8.64
2023-02-21T07:10:10.506Z,8.61
2023-02-21T07:15:12.332Z,8.69
2023-02-21T07:20:14.010Z,8.64
2023-02-21T07:25:17.425Z,8.64
2023-02-21T07:30:19.183Z,8.65
2023-02-21T07:35:20.883Z,8.62
2023-02-21T07:40:22.593Z,8.65
2023-02-21T07:45:24.330Z,8.66
2023-02-21T07:50:25.980Z,8.66
2023-02-21T07:55:27.605Z,8.67
2023-02-21T08:00:29.398Z,8.68
2023-02-21T08:05:31.107Z,8.74
2023-02-21T08:10:32.695Z,8.73
2023-02-21T08:15:34.317Z,8.72
2023-02-21T08:20:35.909Z,8.65
2023-02-21T08:25:37.546Z,8.64
2023-02-21T08:30:39.326Z,8.69
2023-02-21T08:35:41.022Z,8.85
2023-02-21T08:40:42.712Z,8.92
2023-02-21T08:45:44.454Z,8.99
2023-02-21T08:50:46.145Z,9.19
2023-02-21T08:55:47.792Z,9.24
2023-02-21T09:00:49.804Z,9.23
2023-02-21T09:05:54.010Z,9.27
2023-02-21T09:11:00.236Z,9.24
2023-02-21T09:16:05.070Z,9.34
2023-02-21T09:21:07.420Z,9.30
2023-02-21T09:26:09.034Z,9.30
2023-02-21T09:31:10.721Z,9.48
2023-02-21T09:36:12.525Z,9.55
2023-02-21T09:41:14.765Z,9.79
2023-02-21T09:46:21.699Z,9.85
2023-02-21T09:51:25.093Z,9.64
2023-02-21T09:56:34.970Z,9.77
2023-02-21T10:02:10.814Z,9.87
2023-02-21T10:07:34.206Z,9.89
2023-02-21T10:12:44.677Z,10.04
2023-02-21T10:17:55.227Z,10.31
2023-02-21T10:22:57.604Z,10.26
2023-02-21T10:28:00.238Z,10.21
2023-02-21T10:33:09.251Z,10.02
2023-02-21T10:38:16.233Z,9.97
2023-02-21T10:43:44.886Z,10.22
2023-02-21T10:48:50.286Z,10.45
2023-02-21T10:53:52.978Z,10.43
2023-02-21T10:58:56.631Z,10.55
2023-02-21T11:04:21.490Z,10.77
2023-02-21T11:09:34.998Z,10.53
2023-02-21T11:14:36.657Z,10.74
2023-02-21T11:19:49.419Z,10.81
2023-02-21T11:25:00.849Z,10.55
2023-02-21T11:30:11.588Z,10.69
2023-02-21T11:35:27.392Z,10.80
2023-02-21T11:40:35.574Z,10.63
2023-02-21T11:45:41.006Z,10.34
2023-02-21T11:50:49.674Z,10.27
2023-02-21T11:56:20.589Z,10.45
2023-02-21T12:01:33.547Z,10.67
2023-02-21T12:06:53.612Z,10.81
2023-02-21T12:12:13.646Z,10.74
2023-02-21T12:17:58.965Z,10.46
2023-02-21T12:23:12.644Z,10.33
2023-02-21T12:28:47.525Z,10.31
2023-02-21T12:34:01.212Z,10.58
2023-02-21T12:39:41.203Z,10.67
2023-02-21T12:45:01.742Z,10.50
2023-02-21T12:50:15.018Z,10.48
2023-02-21T12:55:22.240Z,10.31
2023-02-21T13:00:34.851Z,10.47
2023-02-21T13:05:47.218Z,10.48
2023-02-21T13:10:54.311Z,10.48
2023-02-21T13:15:57.685Z,10.33
2023-02-21T13:21:08.711Z,10.40
2023-02-21T13:26:34.722Z,10.50
2023-02-21T13:31:39.171Z,10.44
2023-02-21T13:36:46.554Z,10.35
2023-02-21T13:41:52.092Z,10.53
2023-02-21T13:46:54.627Z,10.84
2023-02-21T13:52:13.685Z,11.23
2023-02-21T13:57:37.681Z,11.17
2023-02-21T14:02:56.844Z,10.88
2023-02-21T14:08:07.242Z,10.63
2023-02-21T14:13:21.369Z,10.47
2023-02-21T14:18:30.986Z,10.46
2023-02-21T14:23:42.102Z,10.59
2023-02-21T14:28:58.913Z,10.53
2023-02-21T14:34:00.597Z,10.51
2023-02-21T14:39:03.132Z,10.57
2023-02-21T14:44:28.212Z,10.51
2023-02-21T14:49:38.786Z,10.43
2023-02-21T14:54:56.418Z,10.37
2023-02-21T15:00:38.981Z,10.36
2023-02-21T15:05:53.194Z,10.32
2023-02-21T15:11:00.620Z,10.30
2023-02-21T15:16:07.584Z,10.31
2023-02-21T15:21:12.379Z,10.40
2023-02-21T15:26:19.583Z,10.50
2023-02-21T15:31:22.029Z,10.42
2023-02-21T15:36:24.074Z,10.44
2023-02-21T15:41:28.468Z,10.42
2023-02-21T15:46:46.981Z,10.28
2023-02-21T15:51:51.343Z,10.19
2023-02-21T15:57:16.522Z,10.09
2023-02-21T16:02:23.247Z,10.07
2023-02-21T16:07:31.287Z,9.98
2023-02-21T16:12:46.692Z,9.98
2023-02-21T16:17:54.967Z,9.87
2023-02-21T16:23:25.455Z,9.74
2023-02-21T16:28:28.498Z,9.55
2023-02-21T16:33:30.956Z,9.49
2023-02-21T16:38:32.632Z,9.45
2023-02-21T16:43:36.490Z,9.34
2023-02-21T16:48:38.321Z,9.31
2023-02-21T16:53:40.269Z,9.21
2023-02-21T16:58:46.923Z,8.93
2023-02-21T17:03:48.586Z,8.67
2023-02-21T17:08:51.315Z,8.62
2023-02-21T17:13:52.980Z,8.36
2023-02-21T17:18:54.600Z,8.13
2023-02-21T17:23:57.490Z,8.31
2023-02-21T17:28:59.336Z,8.29
2023-02-21T17:34:01.121Z,8.14
2023-02-21T17:39:02.744Z,7.93
2023-02-21T17:44:04.439Z,7.80
2023-02-21T17:49:06.039Z,7.54
2023-02-21T17:54:07.636Z,7.41
2023-02-21T17:59:09.278Z,7.19
2023-02-21T18:04:12.063Z,7.35
2023-02-21T18:09:13.669Z,7.42
2023-02-21T18:14:15.257Z,7.70
2023-02-21T18:19:17.363Z,7.86
2023-02-21T18:24:19.307Z,7.76
2023-02-21T18:29:20.994Z,7.81
2023-02-21T18:34:22.628Z,7.87
2023-02-21T18:39:24.848Z,7.68
2023-02-21T18:44:26.531Z,7.65
2023-02-21T18:49:28.161Z,7.73
2023-02-21T18:54:29.852Z,7.42
2023-02-21T18:59:34.222Z,7.47
2023-02-21T19:04:35.830Z,7.46
2023-02-21T19:09:37.470Z,7.55
2023-02-21T19:14:39.221Z,7.76
2023-02-21T19:19:40.833Z,8.08
2023-02-21T19:24:42.428Z,8.27
2023-02-21T19:29:44.054Z,8.33
2023-02-21T19:34:50.218Z,8.41
2023-02-21T19:39:51.950Z,8.46
2023-02-21T19:44:53.566Z,8.41
2023-02-21T19:49:55.288Z,8.46
2023-02-21T19:54:56.941Z,8.43
2023-02-21T20:00:00.266Z,8.41
2023-02-21T20:05:02.126Z,8.35
2023-02-21T20:10:03.955Z,8.23
2023-02-21T20:15:06.925Z,8.33
2023-02-21T20:20:11.653Z,8.37
2023-02-21T20:25:13.231Z,8.43
2023-02-21T20:30:17.527Z,8.27
2023-02-21T20:35:19.298Z,8.17
2023-02-21T20:40:20.958Z,7.96
2023-02-21T20:45:23.695Z,7.87
2023-02-21T20:50:25.379Z,7.88
2023-02-21T20:55:27.088Z,8.02
2023-02-21T21:00:30.396Z,8.02
2023-02-21T21:05:32.320Z,8.22
2023-02-21T21:10:33.946Z,8.22
2023-02-21T21:15:35.571Z,8.17
2023-02-21T21:20:41.330Z,8.06
2023-02-21T21:25:43.097Z,7.94
2023-02-21T21:30:44.806Z,7.90
2023-02-21T21:35:46.517Z,7.82
2023-02-21T21:40:48.291Z,7.82
2023-02-21T21:45:50.483Z,7.77
2023-02-21T21:50:52.185Z,7.79
2023-02-21T21:55:53.950Z,7.70
2023-02-21T22:00:55.651Z,7.68
2023-02-21T22:06:00.446Z,7.69
2023-02-21T22:11:02.260Z,7.56
2023-02-21T22:16:04.086Z,7.52
2023-02-21T22:21:13.941Z,7.50
2023-02-21T22:26:21.287Z,7.45
2023-02-21T22:31:23.383Z,7.39
2023-02-21T22:36:26.349Z,7.52
2023-02-21T22:41:31.687Z,7.58
2023-02-21T22:46:45.358Z,7.66
2023-02-21T22:51:46.968Z,7.62
2023-02-21T22:56:51.577Z,7.66
2023-02-21T23:01:53.716Z,7.61
2023-02-21T23:06:59.133Z,7.62
2023-02-21T23:12:00.804Z,7.65
2023-02-21T23:17:02.839Z,7.49
2023-02-21T23:22:05.621Z,7.50
2023-02-21T23:27:08.971Z,7.40
2023-02-21T23:32:10.605Z,7.46
2023-02-21T23:37:12.751Z,7.38
2023-02-21T23:42:17.365Z,7.29
2023-02-21T23:47:19.669Z,7.38
2023-02-21T23:52:22.734Z,7.55
2023-02-21T23:57:26.861Z,7.42
